Madoc, Canada
Current Conditions -  °F | °C
As of 10:00 AM on Thursday 30 Oct 2014 (Local Time) from CYTR Reporting Station
Few Clouds Few Clouds  
Wind Chill: 39°   Ceiling: Unl
Heat Index: 43°   Visibility: 15mi
Dew Point: 37°   Wind: 7mph
Humidity: 81%   Direction: 310°NW
Pressure: 30.05"   Gusts: NA
Location:  44.52°N, 77.48°W
Report Text: CYTR 301400Z 31006KT 15SM FEW030 06/03 A3005 RMK SC1 SLP179
Loading
Personal Weather Stations






























Interactive Weather Map
Tropical Storm Tracking
New forecast layout! Learn more

10-Day Weather Forecast

Advertisements
Track Severe Weather on mobile